This is the latest recevied weather packets stored in our database for station/object OE5HCE. If no packets are shown the sender has not sent any weather packets the latest 10 day(s).
| Time | Temp. | Humidity | Pressure | Rain* | Wind** | Luminosity | Snow |
|---|---|---|---|---|---|---|---|
| 1788072365 | 17.22° C | 72% | 1018.1 hPa | 0 mm | - | 339 W/m² | - |
| 1788071456 | 16.67° C | 70% | 1018.1 hPa | 0 mm | - | 223 W/m² | - |
| 1788070555 | 16.11° C | 68% | 1018 hPa | 0 mm | - | 250 W/m² | - |
| 1788069654 | 15.56° C | 65% | 1018 hPa | 0 mm | - | 144 W/m² | - |
| 1788068756 | 15° C | 63% | 1017.9 hPa | 0 mm | - | 67 W/m² | - |
| 1788067850 | 14.44° C | 62% | 1017.9 hPa | 0 mm | - | 40 W/m² | - |
| 1788066950 | 14.44° C | 62% | 1017.9 hPa | 0 mm | - | 25 W/m² | - |
| 1788066046 | 14.44° C | 63% | 1017.8 hPa | 0 mm | - | 16 W/m² | - |
| 1788065148 | 13.89° C | 63% | 1017.7 hPa | 0 mm | - | 14 W/m² | - |
| 1788064246 | 13.89° C | 64% | 1017.7 hPa | 0 mm | - | 9 W/m² | - |
| 1788063346 | 13.89° C | 65% | 1017.8 hPa | 0 mm | - | 0 W/m² | - |
| 1788062445 | 13.89° C | 66% | 1017.8 hPa | 0 mm | - | 0 W/m² | - |
| 1788061540 | 13.89° C | 65% | 1017.7 hPa | 0 mm | - | 0 W/m² | - |
| 1788060644 | 13.89° C | 65% | 1017.8 hPa | 0 mm | - | 0 W/m² | - |
| 1788059738 | 13.89° C | 66% | 1017.7 hPa | 0 mm | - | 0 W/m² | - |
| 1788058839 | 13.89° C | 67% | 1017.6 hPa | 0 mm | - | 0 W/m² | - |
| 1788057936 | 13.89° C | 67% | 1017.5 hPa | 0 mm | - | 0 W/m² | - |
| 1788057056 | 14.44° C | 67% | 1017.5 hPa | 0 mm | - | 0 W/m² | - |
| 1788056135 | 14.44° C | 68% | 1017.5 hPa | 0 mm | - | 0 W/m² | - |
| 1788055231 | 14.44° C | 68% | 1017.6 hPa | 0 mm | - | 0 W/m² | - |
| 1788054338 | 14.44° C | 69% | 1017.5 hPa | 0 mm | - | 0 W/m² | - |
| 1788053428 | 14.44° C | 69% | 1017.4 hPa | 0 mm | - | 0 W/m² | - |
| 1788052541 | 14.44° C | 70% | 1017.4 hPa | 0 mm | - | 0 W/m² | - |
| 1788051633 | 15° C | 70% | 1017.3 hPa | 0 mm | - | 0 W/m² | - |
| 1788050734 | 15° C | 70% | 1017.3 hPa | 0 mm | - | 0 W/m² | - |
* Rain latest hour (hover to see other rain measurements)
** Current wind speed in m/s (hover to see current wind gust speed)